createdAt,value
2023-05-17T05:02:36.402Z,98301.50
2023-05-17T05:07:39.896Z,98310.25
2023-05-17T05:12:43.309Z,98305.31
2023-05-17T05:17:45.072Z,98302.97
2023-05-17T05:22:48.698Z,98305.44
2023-05-17T05:27:52.309Z,98298.75
2023-05-17T05:32:54.675Z,98306.56
2023-05-17T05:37:57.436Z,98314.09
2023-05-17T05:42:59.538Z,98313.16
2023-05-17T05:48:01.310Z,98320.88
2023-05-17T05:53:17.265Z,98330.56
2023-05-17T05:58:25.203Z,98332.69
2023-05-17T06:03:27.220Z,98342.63
2023-05-17T06:08:28.784Z,98349.34
2023-05-17T06:13:30.561Z,98352.25
2023-05-17T06:18:33.098Z,98356.66
2023-05-17T06:23:34.641Z,98355.94
2023-05-17T06:28:37.100Z,98354.94
2023-05-17T06:33:38.617Z,98364.47
2023-05-17T06:38:40.297Z,98373.63
2023-05-17T06:43:42.158Z,98381.28
2023-05-17T06:48:43.882Z,98377.63
2023-05-17T06:53:45.693Z,98382.97
2023-05-17T06:58:47.369Z,98380.09
2023-05-17T07:03:49.214Z,98389.94
2023-05-17T07:08:51.130Z,98386.25
2023-05-17T07:13:54.351Z,98399.78
2023-05-17T07:18:57.442Z,98393.59
2023-05-17T07:23:59.599Z,98386.09
2023-05-17T07:29:01.203Z,98385.41
2023-05-17T07:34:04.300Z,98388.22
2023-05-17T07:39:05.876Z,98390.16
2023-05-17T07:44:07.386Z,98399.31
2023-05-17T07:49:09.002Z,98399.66
2023-05-17T07:54:21.921Z,98397.94
2023-05-17T07:59:23.883Z,98400.59
2023-05-17T08:04:25.456Z,98413.94
2023-05-17T08:09:26.938Z,98420.84
2023-05-17T08:14:28.468Z,98415.19
2023-05-17T08:19:30.116Z,98417.97
2023-05-17T08:24:31.808Z,98419.44
2023-05-17T08:29:33.336Z,98408.53
2023-05-17T08:34:34.890Z,98408.41
2023-05-17T08:39:36.399Z,98423.00
2023-05-17T08:44:38.859Z,98401.03
2023-05-17T08:49:40.642Z,98403.97
2023-05-17T08:54:42.456Z,98403.25
2023-05-17T08:59:45.841Z,98401.94
2023-05-17T09:04:50.210Z,98400.22
2023-05-17T09:09:53.582Z,98410.63
2023-05-17T09:15:12.776Z,98401.03
2023-05-17T09:20:24.156Z,98408.53
2023-05-17T09:25:25.884Z,98411.56
2023-05-17T09:30:32.012Z,98411.91
2023-05-17T09:35:34.891Z,98414.03
2023-05-17T09:40:39.316Z,98426.91
2023-05-17T09:45:41.169Z,98437.72
2023-05-17T09:50:47.654Z,98434.41
2023-05-17T09:55:49.287Z,98449.69
2023-05-17T10:01:01.691Z,98442.78
2023-05-17T10:06:06.515Z,98448.50
2023-05-17T10:11:09.547Z,98443.22
2023-05-17T10:16:12.099Z,98446.91
2023-05-17T10:21:14.480Z,98444.72
2023-05-17T10:26:16.211Z,98457.84
2023-05-17T10:31:17.864Z,98449.34
2023-05-17T10:36:19.903Z,98440.66
2023-05-17T10:41:24.262Z,98438.28
2023-05-17T10:46:25.827Z,98448.78
2023-05-17T10:51:34.085Z,98449.69
2023-05-17T10:56:38.752Z,98445.16
2023-05-17T11:02:06.477Z,98442.66
2023-05-17T11:07:17.293Z,98434.81
2023-05-17T11:12:31.268Z,98450.81
2023-05-17T11:17:50.981Z,98445.06
2023-05-17T11:22:58.865Z,98452.69
2023-05-17T11:28:00.733Z,98454.81
2023-05-17T11:33:07.227Z,98438.06
2023-05-17T11:38:18.898Z,98436.47
2023-05-17T11:43:25.476Z,98418.28
2023-05-17T11:48:27.558Z,98429.84
2023-05-17T11:53:30.936Z,98422.66
2023-05-17T11:58:33.136Z,98416.91
2023-05-17T12:03:35.288Z,98420.50
2023-05-17T12:08:38.833Z,98409.19
2023-05-17T12:13:43.981Z,98410.91
2023-05-17T12:18:49.622Z,98409.84
2023-05-17T12:23:52.411Z,98425.81
2023-05-17T12:29:01.068Z,98430.78
2023-05-17T12:34:06.023Z,98433.81
2023-05-17T12:39:09.933Z,98428.94
2023-05-17T12:44:15.926Z,98432.81
2023-05-17T12:49:18.617Z,98449.94
2023-05-17T12:54:28.344Z,98445.25
2023-05-17T12:59:29.910Z,98462.47
2023-05-17T13:04:33.628Z,98447.94
2023-05-17T13:09:47.248Z,98440.84
2023-05-17T13:14:54.558Z,98437.19
2023-05-17T13:19:57.993Z,98431.66
2023-05-17T13:24:59.938Z,98441.50
2023-05-17T13:30:01.580Z,98462.19
2023-05-17T13:35:03.384Z,98455.31
2023-05-17T13:40:05.583Z,98446.41
2023-05-17T13:45:09.195Z,98445.78
2023-05-17T13:50:12.032Z,98451.97
2023-05-17T13:55:13.538Z,98471.03
2023-05-17T14:00:16.128Z,98464.34
2023-05-17T14:05:17.978Z,98468.91
2023-05-17T14:10:19.547Z,98466.88
2023-05-17T14:15:21.823Z,98485.06
2023-05-17T14:20:23.415Z,98489.59
2023-05-17T14:25:25.125Z,98462.72
2023-05-17T14:30:26.751Z,98486.72
2023-05-17T14:35:30.215Z,98484.97
2023-05-17T14:40:32.643Z,98486.09
2023-05-17T14:45:34.054Z,98488.63
2023-05-17T14:50:35.794Z,98495.25
2023-05-17T14:55:37.852Z,98490.50
2023-05-17T15:00:41.533Z,98485.38
2023-05-17T15:05:43.202Z,98490.25
2023-05-17T15:10:44.747Z,98485.09
2023-05-17T15:15:49.450Z,98482.09
2023-05-17T15:20:51.040Z,98480.72
2023-05-17T15:25:53.188Z,98479.03
2023-05-17T15:31:02.797Z,98480.03
2023-05-17T15:36:05.792Z,98472.72
2023-05-17T15:41:14.207Z,98460.91
2023-05-17T15:46:15.856Z,98466.13
2023-05-17T15:51:17.656Z,98469.63
2023-05-17T15:56:21.036Z,98453.06
2023-05-17T16:01:22.576Z,98443.38
2023-05-17T16:06:24.081Z,98456.44
2023-05-17T16:11:25.584Z,98468.91
2023-05-17T16:16:27.112Z,98458.56
2023-05-17T16:21:28.765Z,98464.00
2023-05-17T16:26:30.293Z,98463.19
2023-05-17T16:31:31.901Z,98468.97
2023-05-17T16:36:33.892Z,98476.28
2023-05-17T16:41:35.778Z,98478.09
2023-05-17T16:46:37.840Z,98479.72
2023-05-17T16:51:39.477Z,98484.38
2023-05-17T16:56:41.073Z,98497.69
2023-05-17T17:01:42.637Z,98497.28
2023-05-17T17:06:44.394Z,98497.13
2023-05-17T17:11:46.365Z,98492.50
2023-05-17T17:16:48.168Z,98509.59
2023-05-17T17:21:50.515Z,98517.34
2023-05-17T17:26:51.985Z,98519.00
2023-05-17T17:31:55.105Z,98520.84
2023-05-17T17:36:57.822Z,98520.19
2023-05-17T17:41:59.347Z,98530.78
2023-05-17T17:47:01.002Z,98542.56
2023-05-17T17:52:02.921Z,98539.44
2023-05-17T17:57:04.609Z,98543.91
2023-05-17T18:02:06.664Z,98536.56
2023-05-17T18:07:08.278Z,98547.41
2023-05-17T18:12:09.938Z,98551.00
2023-05-17T18:17:11.472Z,98547.75
2023-05-17T18:22:15.942Z,98551.44
2023-05-17T18:27:17.429Z,98555.47
2023-05-17T18:32:19.025Z,98558.22
2023-05-17T18:37:21.184Z,98563.63
2023-05-17T18:42:24.903Z,98568.59
2023-05-17T18:47:27.939Z,98580.03
2023-05-17T18:52:29.574Z,98575.31
2023-05-17T18:57:31.012Z,98586.06
2023-05-17T19:02:32.545Z,98591.56
2023-05-17T19:07:34.269Z,98595.50
2023-05-17T19:12:35.981Z,98610.03
2023-05-17T19:17:37.698Z,98603.06
2023-05-17T19:22:39.259Z,98608.25
2023-05-17T19:27:42.176Z,98614.69
2023-05-17T19:32:43.673Z,98621.16
2023-05-17T19:37:45.221Z,98621.59
2023-05-17T19:42:46.757Z,98633.56
2023-05-17T19:47:48.374Z,98621.06
2023-05-17T19:52:49.917Z,98632.88
2023-05-17T19:57:51.408Z,98628.59
2023-05-17T20:02:52.993Z,98639.34
2023-05-17T20:07:55.281Z,98648.91
2023-05-17T20:12:57.763Z,98647.59
2023-05-17T20:17:59.331Z,98642.91
2023-05-17T20:23:00.957Z,98650.00
2023-05-17T20:28:02.441Z,98651.31
2023-05-17T20:33:04.132Z,98651.97
2023-05-17T20:38:05.758Z,98658.50
2023-05-17T20:43:08.118Z,98655.50
2023-05-17T20:48:09.676Z,98661.56
2023-05-17T20:53:11.245Z,98659.59
2023-05-17T20:58:12.806Z,98662.97
2023-05-17T21:03:14.491Z,98663.66
2023-05-17T21:08:16.070Z,98658.50
2023-05-17T21:13:17.850Z,98664.34
2023-05-17T21:18:19.395Z,98671.75
2023-05-17T21:23:21.000Z,98672.09
2023-05-17T21:28:22.514Z,98675.44
2023-05-17T21:33:23.993Z,98675.94
2023-05-17T21:38:25.482Z,98675.47
2023-05-17T21:43:27.035Z,98682.84
2023-05-17T21:48:28.492Z,98686.84
2023-05-17T21:53:29.952Z,98686.84
2023-05-17T21:58:31.941Z,98682.66
